createdAt,value
2023-09-15T00:01:19.804Z,63.26
2023-09-15T00:04:21.769Z,62.94
2023-09-15T00:07:23.703Z,63.25
2023-09-15T00:10:25.936Z,63.26
2023-09-15T00:13:28.563Z,63.15
2023-09-15T00:16:31.433Z,63.08
2023-09-15T00:19:33.616Z,62.71
2023-09-15T00:22:36.140Z,62.89
2023-09-15T00:25:38.410Z,62.72
2023-09-15T00:28:40.931Z,62.79
2023-09-15T00:31:43.133Z,62.72
2023-09-15T00:34:45.012Z,62.72
2023-09-15T00:37:47.719Z,63.16
2023-09-15T00:40:49.582Z,62.93
2023-09-15T00:43:52.466Z,62.77
2023-09-15T00:46:55.576Z,62.77
2023-09-15T00:49:57.769Z,62.95
2023-09-15T00:53:11.980Z,62.59
2023-09-15T00:56:14.346Z,62.49
2023-09-15T00:59:16.511Z,62.80
2023-09-15T01:02:18.993Z,62.64
2023-09-15T01:05:25.919Z,62.67
2023-09-15T01:08:27.851Z,62.64
2023-09-15T01:11:29.758Z,62.46
2023-09-15T01:14:31.899Z,62.36
2023-09-15T01:17:56.101Z,62.47
2023-09-15T01:21:06.996Z,62.20
2023-09-15T01:24:11.611Z,62.04
2023-09-15T01:27:17.182Z,62.31
2023-09-15T01:30:20.726Z,62.19
2023-09-15T01:33:22.925Z,62.24
2023-09-15T01:36:24.931Z,62.05
2023-09-15T01:39:31.574Z,61.77
2023-09-15T01:42:34.119Z,61.68
2023-09-15T01:45:35.988Z,62.01
2023-09-15T01:48:38.329Z,62.19
2023-09-15T01:51:40.394Z,62.31
2023-09-15T01:54:42.779Z,62.27
2023-09-15T01:57:44.685Z,62.01
2023-09-15T02:00:47.313Z,61.99
2023-09-15T02:03:49.639Z,61.78
2023-09-15T02:06:51.632Z,62.03
2023-09-15T02:09:53.557Z,61.87
2023-09-15T02:12:55.457Z,62.13
2023-09-15T02:15:57.441Z,62.21
2023-09-15T02:18:59.522Z,62.70
2023-09-15T02:22:01.412Z,62.85
2023-09-15T02:25:03.385Z,62.65
2023-09-15T02:28:06.558Z,62.35
2023-09-15T02:31:08.640Z,62.91
2023-09-15T02:34:11.256Z,62.80
2023-09-15T02:37:16.301Z,62.43
2023-09-15T02:40:18.817Z,62.28
2023-09-15T02:43:20.776Z,62.12
2023-09-15T02:46:23.294Z,62.61
2023-09-15T02:49:25.327Z,62.48
2023-09-15T02:52:27.287Z,63.11
2023-09-15T02:55:29.134Z,62.92
2023-09-15T02:58:31.499Z,62.77
2023-09-15T03:01:33.481Z,63.08
2023-09-15T03:04:35.529Z,62.89
2023-09-15T03:07:40.867Z,63.13
2023-09-15T03:10:45.443Z,62.80
2023-09-15T03:13:47.471Z,62.93
2023-09-15T03:16:49.536Z,62.43
2023-09-15T03:19:51.459Z,62.44
2023-09-15T03:22:53.910Z,62.66
2023-09-15T03:26:04.270Z,62.56
2023-09-15T03:29:09.490Z,62.68
2023-09-15T03:32:11.410Z,62.37
2023-09-15T03:35:13.278Z,62.06
2023-09-15T03:38:15.167Z,62.22
2023-09-15T03:41:17.037Z,62.14
2023-09-15T03:44:19.028Z,62.30
2023-09-15T03:47:21.419Z,61.96
2023-09-15T03:50:23.583Z,62.09
2023-09-15T03:53:26.982Z,62.43
2023-09-15T03:56:28.988Z,62.39
2023-09-15T03:59:30.881Z,62.47
2023-09-15T04:02:33.229Z,62.50
2023-09-15T04:05:35.824Z,62.23
2023-09-15T04:08:37.970Z,62.11
2023-09-15T04:11:42.059Z,62.03
2023-09-15T04:14:43.882Z,61.93
2023-09-15T04:17:45.956Z,61.92
2023-09-15T04:20:51.133Z,61.62
2023-09-15T04:23:53.231Z,61.88
2023-09-15T04:26:55.164Z,60.94
2023-09-15T04:29:58.007Z,60.66
2023-09-15T04:33:06.027Z,61.07
2023-09-15T04:36:08.390Z,60.96
2023-09-15T04:39:12.281Z,60.82
2023-09-15T04:42:14.211Z,61.11
2023-09-15T04:45:16.557Z,60.87
2023-09-15T04:48:19.572Z,61.35
2023-09-15T04:51:21.613Z,61.74
2023-09-15T04:54:23.545Z,61.63
2023-09-15T04:57:26.137Z,61.58
2023-09-15T05:00:30.638Z,61.79
2023-09-15T05:03:34.762Z,61.92
2023-09-15T05:06:36.918Z,61.57
2023-09-15T05:09:39.201Z,61.12
2023-09-15T05:12:41.141Z,61.07
2023-09-15T05:15:44.203Z,60.62
2023-09-15T05:18:46.752Z,60.42
2023-09-15T05:21:48.899Z,59.66
2023-09-15T05:24:50.859Z,59.95
2023-09-15T05:27:53.738Z,59.19
2023-09-15T05:31:01.008Z,59.46
2023-09-15T05:34:05.702Z,58.99
2023-09-15T05:37:08.312Z,59.54
2023-09-15T05:40:11.048Z,59.23
2023-09-15T05:43:13.247Z,58.61
2023-09-15T05:46:15.112Z,57.77
2023-09-15T05:49:17.051Z,57.17
2023-09-15T05:52:19.129Z,56.93
2023-09-15T05:55:21.062Z,56.55
2023-09-15T05:58:22.976Z,56.24
2023-09-15T06:01:25.188Z,55.37
2023-09-15T06:04:27.210Z,54.14
2023-09-15T06:07:29.191Z,54.14
2023-09-15T06:10:31.115Z,54.01
2023-09-15T06:13:33.329Z,52.69
2023-09-15T06:16:37.581Z,52.08
2023-09-15T06:19:39.715Z,51.25
2023-09-15T06:22:41.574Z,50.07
2023-09-15T06:25:45.998Z,49.21
2023-09-15T06:28:48.545Z,49.71
2023-09-15T06:31:53.561Z,49.19
2023-09-15T06:34:55.893Z,50.18
2023-09-15T06:37:57.882Z,49.99
2023-09-15T06:41:02.350Z,50.40
2023-09-15T06:44:04.784Z,50.75
2023-09-15T06:47:07.424Z,50.63
2023-09-15T06:50:10.668Z,50.29
2023-09-15T06:53:12.769Z,51.04
2023-09-15T06:56:14.652Z,50.85
2023-09-15T06:59:16.534Z,50.39
2023-09-15T07:02:19.112Z,50.39
2023-09-15T07:05:21.481Z,50.33
2023-09-15T07:08:23.303Z,50.22
2023-09-15T07:11:26.457Z,50.35
2023-09-15T07:14:29.358Z,49.85
2023-09-15T07:17:31.358Z,49.08
2023-09-15T07:20:33.332Z,49.10
2023-09-15T07:23:35.149Z,48.62
2023-09-15T07:26:37.139Z,47.98
2023-09-15T07:29:39.484Z,48.20
2023-09-15T07:32:41.399Z,47.46
2023-09-15T07:35:43.490Z,47.70
2023-09-15T07:38:45.338Z,47.47
2023-09-15T07:41:47.320Z,47.68
2023-09-15T07:44:49.204Z,48.75
2023-09-15T07:47:51.258Z,48.79
2023-09-15T07:50:53.194Z,49.33
2023-09-15T07:53:55.916Z,50.22
2023-09-15T07:56:57.892Z,50.41
2023-09-15T08:00:00.644Z,50.76
2023-09-15T08:03:02.708Z,51.25
2023-09-15T08:06:04.771Z,50.15
2023-09-15T08:09:06.746Z,48.47
2023-09-15T08:12:08.704Z,47.45
2023-09-15T08:15:11.513Z,46.71
2023-09-15T08:18:15.373Z,46.17
2023-09-15T08:21:17.310Z,45.54
2023-09-15T08:24:21.372Z,44.66
2023-09-15T08:27:23.584Z,44.03
2023-09-15T08:30:25.751Z,43.25
2023-09-15T08:33:28.685Z,43.10
2023-09-15T08:36:30.638Z,42.50
2023-09-15T08:39:32.502Z,43.29
2023-09-15T08:42:34.662Z,43.65
2023-09-15T08:45:38.755Z,43.41
2023-09-15T08:48:42.367Z,43.04
2023-09-15T08:51:45.660Z,43.44
2023-09-15T08:54:48.078Z,43.51
2023-09-15T08:57:50.867Z,43.70
2023-09-15T09:00:56.130Z,43.22
2023-09-15T09:03:58.485Z,42.77
2023-09-15T09:07:02.952Z,42.61
2023-09-15T09:10:05.504Z,42.81
2023-09-15T09:13:07.633Z,42.70
2023-09-15T09:16:11.793Z,43.39
2023-09-15T09:19:14.425Z,42.70
2023-09-15T09:22:20.632Z,43.12
2023-09-15T09:25:27.199Z,42.82
2023-09-15T09:28:29.066Z,43.03
2023-09-15T09:31:31.418Z,43.12
2023-09-15T09:34:46.885Z,42.37
2023-09-15T09:37:50.108Z,42.15
2023-09-15T09:40:51.988Z,42.82
2023-09-15T09:43:53.941Z,43.00
2023-09-15T09:46:57.548Z,42.76
2023-09-15T09:49:59.554Z,41.76
2023-09-15T09:53:08.879Z,42.32
2023-09-15T09:56:11.038Z,42.72
2023-09-15T09:59:12.930Z,42.48
2023-09-15T10:02:15.053Z,42.97
2023-09-15T10:05:16.992Z,43.12
2023-09-15T10:08:19.771Z,43.31
2023-09-15T10:11:22.066Z,43.59
2023-09-15T10:14:25.201Z,42.81
2023-09-15T10:17:28.514Z,42.97
2023-09-15T10:20:31.599Z,43.15
2023-09-15T10:23:34.790Z,42.55
2023-09-15T10:26:42.940Z,42.29
2023-09-15T10:29:46.700Z,41.79
2023-09-15T10:32:49.703Z,41.83
2023-09-15T10:35:51.742Z,42.50
2023-09-15T10:38:53.735Z,41.54
2023-09-15T10:42:06.153Z,42.07
2023-09-15T10:45:12.742Z,42.13
2023-09-15T10:48:14.693Z,41.93
2023-09-15T10:51:19.508Z,42.15
2023-09-15T10:54:22.264Z,41.72
2023-09-15T10:57:24.510Z,41.48
2023-09-15T11:00:26.871Z,41.42
2023-09-15T11:03:29.871Z,41.57
2023-09-15T11:06:33.583Z,41.44
2023-09-15T11:09:35.701Z,41.33
2023-09-15T11:12:37.656Z,41.06
2023-09-15T11:15:39.904Z,41.54
2023-09-15T11:18:41.793Z,41.54
2023-09-15T11:21:45.004Z,41.25
2023-09-15T11:24:46.825Z,40.89
2023-09-15T11:27:50.530Z,40.82
2023-09-15T11:30:53.910Z,41.16
2023-09-15T11:33:57.936Z,40.99
2023-09-15T11:37:01.350Z,40.96
2023-09-15T11:40:04.399Z,41.08
2023-09-15T11:43:06.194Z,40.61
2023-09-15T11:46:10.996Z,41.28
2023-09-15T11:49:13.434Z,41.49
2023-09-15T11:52:15.881Z,41.48
2023-09-15T11:55:23.848Z,40.92
2023-09-15T11:58:26.042Z,41.21
2023-09-15T12:01:29.983Z,40.64
2023-09-15T12:04:32.209Z,40.89
2023-09-15T12:07:34.274Z,40.75
2023-09-15T12:10:36.270Z,41.26
2023-09-15T12:13:38.306Z,41.16
2023-09-15T12:16:40.825Z,41.12
2023-09-15T12:19:42.642Z,40.50
2023-09-15T12:22:45.492Z,40.64
2023-09-15T12:25:47.417Z,40.85
2023-09-15T12:28:50.237Z,40.71
2023-09-15T12:31:52.654Z,40.43
2023-09-15T12:34:55.425Z,40.54
2023-09-15T12:37:57.794Z,40.72
2023-09-15T12:40:59.606Z,40.57
2023-09-15T12:44:01.456Z,40.64
2023-09-15T12:47:05.649Z,40.55
2023-09-15T12:50:08.055Z,40.70
2023-09-15T12:53:10.018Z,41.03
2023-09-15T12:56:12.044Z,40.98
2023-09-15T12:59:14.469Z,40.92
2023-09-15T13:02:16.521Z,40.89
2023-09-15T13:05:18.641Z,41.01
2023-09-15T13:08:20.639Z,41.11
2023-09-15T13:11:22.453Z,41.78
2023-09-15T13:14:24.325Z,42.55
2023-09-15T13:17:26.252Z,43.05
2023-09-15T13:20:28.126Z,42.72
2023-09-15T13:23:29.993Z,42.39
2023-09-15T13:26:32.261Z,42.46
2023-09-15T13:29:34.286Z,42.86
2023-09-15T13:32:36.139Z,43.29
2023-09-15T13:35:37.954Z,43.83
2023-09-15T13:38:39.945Z,44.14
2023-09-15T13:41:41.742Z,44.74
2023-09-15T13:44:43.673Z,44.81
2023-09-15T13:47:45.690Z,45.36
2023-09-15T13:50:48.665Z,45.23
2023-09-15T13:53:50.777Z,44.83
2023-09-15T13:56:52.808Z,45.07
2023-09-15T13:59:54.854Z,44.82
2023-09-15T14:02:57.226Z,45.14
2023-09-15T14:05:59.434Z,45.67
2023-09-15T14:09:01.297Z,45.79
2023-09-15T14:12:04.045Z,45.78
2023-09-15T14:15:10.567Z,46.02
2023-09-15T14:18:13.861Z,45.98
2023-09-15T14:21:17.472Z,46.09
2023-09-15T14:24:19.952Z,46.08
2023-09-15T14:27:22.152Z,46.28
2023-09-15T14:30:24.367Z,46.08
2023-09-15T14:33:26.210Z,46.34
2023-09-15T14:36:28.048Z,46.98
2023-09-15T14:39:30.052Z,46.82
2023-09-15T14:42:33.138Z,47.31
2023-09-15T14:45:35.179Z,46.96
2023-09-15T14:48:37.136Z,47.28
2023-09-15T14:51:40.136Z,46.88
2023-09-15T14:54:42.104Z,47.41
2023-09-15T14:57:44.007Z,47.50
2023-09-15T15:00:46.019Z,47.77
2023-09-15T15:03:47.913Z,47.85
2023-09-15T15:06:50.229Z,47.55
2023-09-15T15:09:52.266Z,48.38
2023-09-15T15:12:54.142Z,48.50
2023-09-15T15:15:56.331Z,48.41
2023-09-15T15:19:05.758Z,48.62
2023-09-15T15:22:09.860Z,48.50
2023-09-15T15:25:11.942Z,48.64
2023-09-15T15:28:13.815Z,48.99
2023-09-15T15:31:18.207Z,48.95
2023-09-15T15:34:19.951Z,49.31
2023-09-15T15:37:23.399Z,49.32
2023-09-15T15:40:25.264Z,48.91
2023-09-15T15:43:27.365Z,49.62
2023-09-15T15:46:29.259Z,49.55
2023-09-15T15:49:32.026Z,50.38
2023-09-15T15:52:36.759Z,51.08
2023-09-15T15:55:38.592Z,50.43
2023-09-15T15:58:40.396Z,50.48
2023-09-15T16:01:42.249Z,50.59
2023-09-15T16:04:46.237Z,50.73
2023-09-15T16:07:48.059Z,50.57
2023-09-15T16:10:49.944Z,50.68
2023-09-15T16:13:51.845Z,51.13
2023-09-15T16:16:54.219Z,51.39
2023-09-15T16:19:58.247Z,51.40
2023-09-15T16:23:00.138Z,51.49
2023-09-15T16:26:04.990Z,51.77
2023-09-15T16:29:07.203Z,52.03
2023-09-15T16:32:09.227Z,52.00
2023-09-15T16:35:12.256Z,51.78
2023-09-15T16:38:15.230Z,52.24
2023-09-15T16:41:17.166Z,52.52
2023-09-15T16:44:19.019Z,52.62
2023-09-15T16:47:28.645Z,52.86
2023-09-15T16:50:30.693Z,52.92
2023-09-15T16:53:32.605Z,53.33
2023-09-15T16:56:34.449Z,53.67
2023-09-15T16:59:36.363Z,54.27
2023-09-15T17:02:38.785Z,54.51
2023-09-15T17:05:41.024Z,54.62
2023-09-15T17:08:42.998Z,55.02
2023-09-15T17:11:44.885Z,54.95
2023-09-15T17:14:48.114Z,55.09
2023-09-15T17:17:50.024Z,55.16
2023-09-15T17:20:52.014Z,55.39
2023-09-15T17:23:53.965Z,55.91
2023-09-15T17:26:56.899Z,55.80
2023-09-15T17:29:58.764Z,55.79
2023-09-15T17:33:01.602Z,56.23
2023-09-15T17:36:03.728Z,56.24
2023-09-15T17:39:06.410Z,56.47
2023-09-15T17:42:09.382Z,56.54
2023-09-15T17:45:12.274Z,56.58
2023-09-15T17:48:14.280Z,56.90
2023-09-15T17:51:16.163Z,56.78
2023-09-15T17:54:22.617Z,56.93
2023-09-15T17:57:24.792Z,57.20
2023-09-15T18:00:27.074Z,57.46
2023-09-15T18:03:29.198Z,56.98
2023-09-15T18:06:31.224Z,56.86
2023-09-15T18:09:35.352Z,56.98
2023-09-15T18:12:37.752Z,56.83
2023-09-15T18:15:39.795Z,56.96
2023-09-15T18:18:42.313Z,56.96
2023-09-15T18:21:44.231Z,57.07
2023-09-15T18:24:48.193Z,57.23
2023-09-15T18:27:50.125Z,57.45
2023-09-15T18:30:52.985Z,57.57
2023-09-15T18:33:56.316Z,57.57
2023-09-15T18:36:59.943Z,57.42
2023-09-15T18:40:01.827Z,57.69
2023-09-15T18:43:03.950Z,57.86
2023-09-15T18:46:06.351Z,57.71
2023-09-15T18:49:10.177Z,57.83
2023-09-15T18:52:12.067Z,57.76
2023-09-15T18:55:14.315Z,57.86
2023-09-15T18:58:16.262Z,57.77
2023-09-15T19:01:18.105Z,58.09
2023-09-15T19:04:20.004Z,57.72
2023-09-15T19:07:21.862Z,57.78
2023-09-15T19:10:24.455Z,57.79
2023-09-15T19:13:33.518Z,57.81
2023-09-15T19:16:36.125Z,57.67
2023-09-15T19:19:37.997Z,57.53
2023-09-15T19:22:40.541Z,57.31
2023-09-15T19:25:43.063Z,57.31
2023-09-15T19:28:47.900Z,57.60
2023-09-15T19:31:49.945Z,57.61
2023-09-15T19:34:52.636Z,57.50
2023-09-15T19:37:54.471Z,57.59
2023-09-15T19:40:56.323Z,57.77
2023-09-15T19:43:58.939Z,57.81
2023-09-15T19:47:00.900Z,57.53
2023-09-15T19:50:03.755Z,57.38
2023-09-15T19:53:06.780Z,57.18
2023-09-15T19:56:08.719Z,57.11
2023-09-15T19:59:10.586Z,57.21
2023-09-15T20:02:12.999Z,57.29
2023-09-15T20:05:15.737Z,57.20
2023-09-15T20:08:17.598Z,56.95
2023-09-15T20:11:19.494Z,57.12
2023-09-15T20:14:21.850Z,57.43
2023-09-15T20:17:26.465Z,58.53
2023-09-15T20:20:28.319Z,59.10
2023-09-15T20:23:30.891Z,59.25
2023-09-15T20:26:32.699Z,59.93
2023-09-15T20:29:34.577Z,60.77
2023-09-15T20:32:37.590Z,61.02
2023-09-15T20:35:44.839Z,61.61
2023-09-15T20:38:46.889Z,61.34
2023-09-15T20:41:49.079Z,61.68
2023-09-15T20:44:51.216Z,61.95
2023-09-15T20:47:54.600Z,62.46
2023-09-15T20:50:56.682Z,62.61
2023-09-15T20:53:58.496Z,62.49
2023-09-15T20:57:00.564Z,62.73
2023-09-15T21:00:02.720Z,62.83
2023-09-15T21:03:04.926Z,62.62
2023-09-15T21:06:06.841Z,62.71
2023-09-15T21:09:08.946Z,62.87
2023-09-15T21:12:16.057Z,63.08
2023-09-15T21:15:18.018Z,63.24
2023-09-15T21:18:20.050Z,63.74
2023-09-15T21:21:22.015Z,63.91
2023-09-15T21:24:23.928Z,63.94
2023-09-15T21:27:26.023Z,64.09
2023-09-15T21:30:28.023Z,64.46
2023-09-15T21:33:30.003Z,64.64
2023-09-15T21:36:31.984Z,64.96
2023-09-15T21:39:34.841Z,65.07
2023-09-15T21:42:36.796Z,65.49
2023-09-15T21:45:38.821Z,65.65
2023-09-15T21:48:40.886Z,65.84
2023-09-15T21:51:42.819Z,66.15
2023-09-15T21:54:44.697Z,66.09
2023-09-15T21:57:46.706Z,66.49
2023-09-15T22:00:49.860Z,66.54
2023-09-15T22:03:51.901Z,66.57
2023-09-15T22:06:53.830Z,66.68
2023-09-15T22:09:55.953Z,66.65
2023-09-15T22:12:58.633Z,66.82
2023-09-15T22:16:00.734Z,67.04
2023-09-15T22:19:02.749Z,67.31
2023-09-15T22:22:09.241Z,67.44
2023-09-15T22:25:11.954Z,67.65
2023-09-15T22:28:13.843Z,67.96
2023-09-15T22:31:16.285Z,67.95
2023-09-15T22:34:18.237Z,68.29
2023-09-15T22:37:20.842Z,68.43
2023-09-15T22:40:23.055Z,68.76
2023-09-15T22:43:24.913Z,69.02
2023-09-15T22:46:29.031Z,68.94
2023-09-15T22:49:31.965Z,68.89
2023-09-15T22:52:37.970Z,69.20
2023-09-15T22:55:39.995Z,69.15
2023-09-15T22:58:41.890Z,69.17
2023-09-15T23:01:44.037Z,69.58
2023-09-15T23:04:45.931Z,69.47
2023-09-15T23:07:47.859Z,69.53
2023-09-15T23:10:49.731Z,69.93
2023-09-15T23:13:51.591Z,70.06
2023-09-15T23:16:53.766Z,70.32
2023-09-15T23:19:58.468Z,70.17
2023-09-15T23:23:00.330Z,70.28
2023-09-15T23:26:02.430Z,70.36
2023-09-15T23:29:04.230Z,70.34
2023-09-15T23:32:07.230Z,70.22
2023-09-15T23:35:11.180Z,70.35
2023-09-15T23:38:13.464Z,70.55
2023-09-15T23:41:15.316Z,70.49
2023-09-15T23:44:17.809Z,70.72
2023-09-15T23:47:19.668Z,70.62
2023-09-15T23:50:25.158Z,70.83
2023-09-15T23:53:27.038Z,70.57
2023-09-15T23:56:29.513Z,71.11
2023-09-15T23:59:31.614Z,70.87
